sensor_id;sensor_type;location;lat;lon;timestamp;P1;durP1;ratioP1;P2;durP2;ratioP2
20627;SDS011;10473;42.734;24.258;2023-07-29T00:02:18;0.40;;;0.30;;
20627;SDS011;10473;42.734;24.258;2023-07-29T00:04:46;0.37;;;0.37;;
20627;SDS011;10473;42.734;24.258;2023-07-29T00:07:13;0.20;;;0.20;;
20627;SDS011;10473;42.734;24.258;2023-07-29T00:09:41;0.00;;;0.00;;
20627;SDS011;10473;42.734;24.258;2023-07-29T00:12:12;0.33;;;0.33;;
20627;SDS011;10473;42.734;24.258;2023-07-29T00:14:42;0.10;;;0.10;;
20627;SDS011;10473;42.734;24.258;2023-07-29T00:17:09;0.10;;;0.10;;
20627;SDS011;10473;42.734;24.258;2023-07-29T00:19:37;1.20;;;0.43;;
20627;SDS011;10473;42.734;24.258;2023-07-29T00:22:04;0.60;;;0.60;;
20627;SDS011;10473;42.734;24.258;2023-07-29T00:24:34;3.37;;;0.63;;
20627;SDS011;10473;42.734;24.258;2023-07-29T00:27:03;0.60;;;0.40;;
20627;SDS011;10473;42.734;24.258;2023-07-29T00:29:31;0.23;;;0.23;;
20627;SDS011;10473;42.734;24.258;2023-07-29T00:32:00;0.00;;;0.00;;
20627;SDS011;10473;42.734;24.258;2023-07-29T00:34:28;0.47;;;0.43;;
20627;SDS011;10473;42.734;24.258;2023-07-29T00:36:57;0.07;;;0.07;;
20627;SDS011;10473;42.734;24.258;2023-07-29T00:39:24;0.23;;;0.23;;
20627;SDS011;10473;42.734;24.258;2023-07-29T00:41:52;2.30;;;0.87;;
20627;SDS011;10473;42.734;24.258;2023-07-29T00:44:21;0.00;;;0.00;;
20627;SDS011;10473;42.734;24.258;2023-07-29T00:46:49;1.50;;;0.43;;
20627;SDS011;10473;42.734;24.258;2023-07-29T00:49:21;0.30;;;0.30;;
20627;SDS011;10473;42.734;24.258;2023-07-29T00:51:49;0.60;;;0.33;;
20627;SDS011;10473;42.734;24.258;2023-07-29T00:54:17;0.10;;;0.10;;
20627;SDS011;10473;42.734;24.258;2023-07-29T00:56:45;0.23;;;0.23;;
20627;SDS011;10473;42.734;24.258;2023-07-29T00:59:12;0.73;;;0.50;;
20627;SDS011;10473;42.734;24.258;2023-07-29T01:01:40;0.77;;;0.77;;
20627;SDS011;10473;42.734;24.258;2023-07-29T01:04:08;0.67;;;0.57;;
20627;SDS011;10473;42.734;24.258;2023-07-29T01:06:40;0.70;;;0.70;;
20627;SDS011;10473;42.734;24.258;2023-07-29T01:09:29;0.20;;;0.20;;
20627;SDS011;10473;42.734;24.258;2023-07-29T01:12:21;0.10;;;0.10;;
20627;SDS011;10473;42.734;24.258;2023-07-29T01:14:55;0.20;;;0.20;;
20627;SDS011;10473;42.734;24.258;2023-07-29T01:17:31;0.23;;;0.23;;
20627;SDS011;10473;42.734;24.258;2023-07-29T01:20:04;0.20;;;0.20;;
20627;SDS011;10473;42.734;24.258;2023-07-29T01:22:37;0.13;;;0.13;;
20627;SDS011;10473;42.734;24.258;2023-07-29T01:25:07;0.50;;;0.50;;
20627;SDS011;10473;42.734;24.258;2023-07-29T01:27:35;0.10;;;0.10;;
20627;SDS011;10473;42.734;24.258;2023-07-29T01:30:03;0.30;;;0.30;;
20627;SDS011;10473;42.734;24.258;2023-07-29T01:32:41;0.50;;;0.50;;
20627;SDS011;10473;42.734;24.258;2023-07-29T01:35:15;0.20;;;0.20;;
20627;SDS011;10473;42.734;24.258;2023-07-29T01:37:48;0.00;;;0.00;;
20627;SDS011;10473;42.734;24.258;2023-07-29T01:40:23;0.00;;;0.00;;
20627;SDS011;10473;42.734;24.258;2023-07-29T01:42:53;0.20;;;0.10;;
20627;SDS011;10473;42.734;24.258;2023-07-29T01:45:23;0.50;;;0.50;;
20627;SDS011;10473;42.734;24.258;2023-07-29T01:47:51;0.13;;;0.13;;
20627;SDS011;10473;42.734;24.258;2023-07-29T01:50:19;0.13;;;0.13;;
20627;SDS011;10473;42.734;24.258;2023-07-29T01:52:47;0.13;;;0.13;;
20627;SDS011;10473;42.734;24.258;2023-07-29T01:55:15;0.13;;;0.13;;
20627;SDS011;10473;42.734;24.258;2023-07-29T01:57:44;0.00;;;0.00;;
20627;SDS011;10473;42.734;24.258;2023-07-29T02:00:12;0.50;;;0.50;;
20627;SDS011;10473;42.734;24.258;2023-07-29T02:02:40;0.30;;;0.30;;
20627;SDS011;10473;42.734;24.258;2023-07-29T02:05:08;0.20;;;0.20;;
20627;SDS011;10473;42.734;24.258;2023-07-29T02:07:36;0.30;;;0.30;;
20627;SDS011;10473;42.734;24.258;2023-07-29T02:10:04;0.10;;;0.10;;
20627;SDS011;10473;42.734;24.258;2023-07-29T02:12:32;0.37;;;0.37;;
20627;SDS011;10473;42.734;24.258;2023-07-29T02:15:02;0.53;;;0.53;;
20627;SDS011;10473;42.734;24.258;2023-07-29T02:17:30;0.73;;;0.33;;
20627;SDS011;10473;42.734;24.258;2023-07-29T02:19:58;0.50;;;0.50;;
20627;SDS011;10473;42.734;24.258;2023-07-29T02:22:26;0.10;;;0.10;;
20627;SDS011;10473;42.734;24.258;2023-07-29T02:24:54;0.33;;;0.30;;
20627;SDS011;10473;42.734;24.258;2023-07-29T02:27:21;3.20;;;0.30;;
20627;SDS011;10473;42.734;24.258;2023-07-29T02:29:51;5.73;;;0.60;;
20627;SDS011;10473;42.734;24.258;2023-07-29T02:32:20;0.30;;;0.30;;
20627;SDS011;10473;42.734;24.258;2023-07-29T02:34:48;0.10;;;0.10;;
20627;SDS011;10473;42.734;24.258;2023-07-29T02:37:16;3.10;;;0.63;;
20627;SDS011;10473;42.734;24.258;2023-07-29T02:39:44;0.30;;;0.30;;
20627;SDS011;10473;42.734;24.258;2023-07-29T02:42:12;0.10;;;0.10;;
20627;SDS011;10473;42.734;24.258;2023-07-29T02:44:39;0.30;;;0.30;;
20627;SDS011;10473;42.734;24.258;2023-07-29T02:47:07;0.10;;;0.10;;
20627;SDS011;10473;42.734;24.258;2023-07-29T02:49:37;0.23;;;0.23;;
20627;SDS011;10473;42.734;24.258;2023-07-29T02:52:04;0.20;;;0.20;;
20627;SDS011;10473;42.734;24.258;2023-07-29T02:54:32;0.33;;;0.30;;
20627;SDS011;10473;42.734;24.258;2023-07-29T02:57:00;0.20;;;0.20;;
20627;SDS011;10473;42.734;24.258;2023-07-29T02:59:28;0.10;;;0.10;;
20627;SDS011;10473;42.734;24.258;2023-07-29T03:01:56;0.40;;;0.40;;
20627;SDS011;10473;42.734;24.258;2023-07-29T03:04:23;0.27;;;0.27;;
20627;SDS011;10473;42.734;24.258;2023-07-29T03:06:52;0.10;;;0.10;;
20627;SDS011;10473;42.734;24.258;2023-07-29T03:09:20;0.37;;;0.37;;
20627;SDS011;10473;42.734;24.258;2023-07-29T03:11:48;0.27;;;0.27;;
20627;SDS011;10473;42.734;24.258;2023-07-29T03:14:16;1.90;;;0.20;;
20627;SDS011;10473;42.734;24.258;2023-07-29T03:16:44;0.30;;;0.30;;
20627;SDS011;10473;42.734;24.258;2023-07-29T03:19:12;0.73;;;0.70;;
20627;SDS011;10473;42.734;24.258;2023-07-29T03:21:40;0.20;;;0.20;;
20627;SDS011;10473;42.734;24.258;2023-07-29T03:24:10;0.57;;;0.57;;
20627;SDS011;10473;42.734;24.258;2023-07-29T03:26:37;0.47;;;0.47;;
20627;SDS011;10473;42.734;24.258;2023-07-29T03:29:05;0.60;;;0.60;;
20627;SDS011;10473;42.734;24.258;2023-07-29T03:31:33;0.30;;;0.30;;
20627;SDS011;10473;42.734;24.258;2023-07-29T03:34:01;0.13;;;0.13;;
20627;SDS011;10473;42.734;24.258;2023-07-29T03:36:29;0.30;;;0.30;;
20627;SDS011;10473;42.734;24.258;2023-07-29T03:38:57;0.23;;;0.23;;
20627;SDS011;10473;42.734;24.258;2023-07-29T03:41:28;3.70;;;0.20;;
20627;SDS011;10473;42.734;24.258;2023-07-29T03:43:56;7.93;;;2.00;;
20627;SDS011;10473;42.734;24.258;2023-07-29T03:46:23;5.47;;;4.73;;
20627;SDS011;10473;42.734;24.258;2023-07-29T03:48:52;8.90;;;6.80;;
20627;SDS011;10473;42.734;24.258;2023-07-29T03:51:20;8.13;;;5.77;;
20627;SDS011;10473;42.734;24.258;2023-07-29T03:53:49;5.73;;;3.63;;
20627;SDS011;10473;42.734;24.258;2023-07-29T03:56:17;2.83;;;0.70;;
20627;SDS011;10473;42.734;24.258;2023-07-29T03:58:46;0.40;;;0.40;;
20627;SDS011;10473;42.734;24.258;2023-07-29T04:01:15;0.50;;;0.50;;
20627;SDS011;10473;42.734;24.258;2023-07-29T04:03:44;1.90;;;0.50;;
20627;SDS011;10473;42.734;24.258;2023-07-29T04:06:12;0.23;;;0.23;;
20627;SDS011;10473;42.734;24.258;2023-07-29T04:08:39;0.30;;;0.30;;
20627;SDS011;10473;42.734;24.258;2023-07-29T04:11:08;0.40;;;0.40;;
20627;SDS011;10473;42.734;24.258;2023-07-29T04:13:36;0.10;;;0.10;;
20627;SDS011;10473;42.734;24.258;2023-07-29T04:16:05;0.47;;;0.47;;
20627;SDS011;10473;42.734;24.258;2023-07-29T04:18:33;3.93;;;0.43;;
20627;SDS011;10473;42.734;24.258;2023-07-29T04:21:01;0.20;;;0.10;;
20627;SDS011;10473;42.734;24.258;2023-07-29T04:23:29;0.40;;;0.40;;
20627;SDS011;10473;42.734;24.258;2023-07-29T04:25:57;0.53;;;0.50;;
20627;SDS011;10473;42.734;24.258;2023-07-29T04:28:25;0.20;;;0.20;;
20627;SDS011;10473;42.734;24.258;2023-07-29T04:30:52;0.50;;;0.50;;
20627;SDS011;10473;42.734;24.258;2023-07-29T04:33:22;0.30;;;0.30;;
20627;SDS011;10473;42.734;24.258;2023-07-29T04:35:50;0.40;;;0.40;;
20627;SDS011;10473;42.734;24.258;2023-07-29T04:38:18;0.40;;;0.40;;
20627;SDS011;10473;42.734;24.258;2023-07-29T04:40:48;0.10;;;0.10;;
20627;SDS011;10473;42.734;24.258;2023-07-29T04:43:18;3.60;;;0.80;;
20627;SDS011;10473;42.734;24.258;2023-07-29T04:45:46;0.40;;;0.40;;
20627;SDS011;10473;42.734;24.258;2023-07-29T04:48:14;0.40;;;0.40;;
20627;SDS011;10473;42.734;24.258;2023-07-29T04:50:43;3.40;;;0.83;;
20627;SDS011;10473;42.734;24.258;2023-07-29T04:53:11;0.90;;;0.90;;
20627;SDS011;10473;42.734;24.258;2023-07-29T04:55:38;0.60;;;0.60;;
20627;SDS011;10473;42.734;24.258;2023-07-29T04:58:08;0.20;;;0.20;;
20627;SDS011;10473;42.734;24.258;2023-07-29T05:00:41;1.27;;;1.17;;
20627;SDS011;10473;42.734;24.258;2023-07-29T05:03:09;0.80;;;0.80;;
20627;SDS011;10473;42.734;24.258;2023-07-29T05:05:37;0.90;;;0.90;;
20627;SDS011;10473;42.734;24.258;2023-07-29T05:08:06;0.77;;;0.77;;
20627;SDS011;10473;42.734;24.258;2023-07-29T05:10:34;0.40;;;0.40;;
20627;SDS011;10473;42.734;24.258;2023-07-29T05:13:02;0.40;;;0.40;;
20627;SDS011;10473;42.734;24.258;2023-07-29T05:15:30;0.33;;;0.30;;
20627;SDS011;10473;42.734;24.258;2023-07-29T05:17:57;0.43;;;0.43;;
20627;SDS011;10473;42.734;24.258;2023-07-29T05:20:25;1.37;;;1.17;;
20627;SDS011;10473;42.734;24.258;2023-07-29T05:22:53;1.13;;;1.07;;
20627;SDS011;10473;42.734;24.258;2023-07-29T05:25:22;1.43;;;1.33;;
20627;SDS011;10473;42.734;24.258;2023-07-29T05:27:49;1.57;;;1.47;;
20627;SDS011;10473;42.734;24.258;2023-07-29T05:30:17;0.93;;;0.87;;
20627;SDS011;10473;42.734;24.258;2023-07-29T05:32:45;0.50;;;0.50;;
20627;SDS011;10473;42.734;24.258;2023-07-29T05:35:13;1.20;;;1.17;;
20627;SDS011;10473;42.734;24.258;2023-07-29T05:37:41;0.50;;;0.50;;
20627;SDS011;10473;42.734;24.258;2023-07-29T05:40:08;0.33;;;0.33;;
20627;SDS011;10473;42.734;24.258;2023-07-29T05:42:39;1.13;;;1.03;;
20627;SDS011;10473;42.734;24.258;2023-07-29T05:45:07;0.83;;;0.47;;
20627;SDS011;10473;42.734;24.258;2023-07-29T05:47:36;1.60;;;1.43;;
20627;SDS011;10473;42.734;24.258;2023-07-29T05:50:04;0.73;;;0.73;;
20627;SDS011;10473;42.734;24.258;2023-07-29T05:52:34;0.73;;;0.70;;
20627;SDS011;10473;42.734;24.258;2023-07-29T05:55:02;0.50;;;0.50;;
20627;SDS011;10473;42.734;24.258;2023-07-29T05:57:30;0.40;;;0.30;;
20627;SDS011;10473;42.734;24.258;2023-07-29T05:59:59;1.10;;;0.60;;
20627;SDS011;10473;42.734;24.258;2023-07-29T06:02:28;0.97;;;0.90;;
20627;SDS011;10473;42.734;24.258;2023-07-29T06:04:56;0.20;;;0.20;;
20627;SDS011;10473;42.734;24.258;2023-07-29T06:07:23;0.73;;;0.73;;
20627;SDS011;10473;42.734;24.258;2023-07-29T06:09:55;0.90;;;0.90;;
20627;SDS011;10473;42.734;24.258;2023-07-29T06:12:23;1.33;;;1.10;;
20627;SDS011;10473;42.734;24.258;2023-07-29T06:14:52;0.10;;;0.10;;
20627;SDS011;10473;42.734;24.258;2023-07-29T06:17:21;0.27;;;0.27;;
20627;SDS011;10473;42.734;24.258;2023-07-29T06:19:49;0.60;;;0.43;;
20627;SDS011;10473;42.734;24.258;2023-07-29T06:22:16;0.53;;;0.53;;
20627;SDS011;10473;42.734;24.258;2023-07-29T06:24:44;0.40;;;0.40;;
20627;SDS011;10473;42.734;24.258;2023-07-29T06:27:12;0.30;;;0.30;;
20627;SDS011;10473;42.734;24.258;2023-07-29T06:29:39;0.40;;;0.40;;
20627;SDS011;10473;42.734;24.258;2023-07-29T06:32:09;0.27;;;0.27;;
20627;SDS011;10473;42.734;24.258;2023-07-29T06:34:38;0.40;;;0.40;;
20627;SDS011;10473;42.734;24.258;2023-07-29T06:37:06;0.40;;;0.40;;
20627;SDS011;10473;42.734;24.258;2023-07-29T06:39:33;0.20;;;0.20;;
20627;SDS011;10473;42.734;24.258;2023-07-29T06:42:01;0.38;;;0.38;;
20627;SDS011;10473;42.734;24.258;2023-07-29T06:44:29;1.27;;;1.17;;
20627;SDS011;10473;42.734;24.258;2023-07-29T06:46:59;0.60;;;0.50;;
20627;SDS011;10473;42.734;24.258;2023-07-29T06:49:26;0.20;;;0.20;;
20627;SDS011;10473;42.734;24.258;2023-07-29T06:51:55;0.20;;;0.20;;
20627;SDS011;10473;42.734;24.258;2023-07-29T06:54:29;0.30;;;0.30;;
20627;SDS011;10473;42.734;24.258;2023-07-29T06:56:57;0.37;;;0.37;;
20627;SDS011;10473;42.734;24.258;2023-07-29T06:59:25;0.23;;;0.23;;
20627;SDS011;10473;42.734;24.258;2023-07-29T07:01:53;0.10;;;0.10;;
20627;SDS011;10473;42.734;24.258;2023-07-29T07:04:20;0.20;;;0.20;;
20627;SDS011;10473;42.734;24.258;2023-07-29T07:06:48;0.40;;;0.40;;
20627;SDS011;10473;42.734;24.258;2023-07-29T07:09:17;1.20;;;0.55;;
20627;SDS011;10473;42.734;24.258;2023-07-29T07:11:45;0.25;;;0.25;;
20627;SDS011;10473;42.734;24.258;2023-07-29T07:14:12;0.27;;;0.27;;
20627;SDS011;10473;42.734;24.258;2023-07-29T07:16:40;0.40;;;0.40;;
20627;SDS011;10473;42.734;24.258;2023-07-29T07:19:08;0.57;;;0.57;;
20627;SDS011;10473;42.734;24.258;2023-07-29T07:21:36;1.17;;;0.60;;
20627;SDS011;10473;42.734;24.258;2023-07-29T07:24:03;0.40;;;0.40;;
20627;SDS011;10473;42.734;24.258;2023-07-29T07:26:33;0.40;;;0.40;;
20627;SDS011;10473;42.734;24.258;2023-07-29T07:29:00;10.25;;;1.00;;
20627;SDS011;10473;42.734;24.258;2023-07-29T07:31:32;0.22;;;0.22;;
20627;SDS011;10473;42.734;24.258;2023-07-29T07:34:00;0.30;;;0.30;;
20627;SDS011;10473;42.734;24.258;2023-07-29T07:36:29;0.60;;;0.60;;
20627;SDS011;10473;42.734;24.258;2023-07-29T07:38:57;0.45;;;0.45;;
20627;SDS011;10473;42.734;24.258;2023-07-29T07:41:25;0.73;;;0.73;;
20627;SDS011;10473;42.734;24.258;2023-07-29T07:43:54;3.83;;;0.90;;
20627;SDS011;10473;42.734;24.258;2023-07-29T07:46:22;0.50;;;0.50;;
20627;SDS011;10473;42.734;24.258;2023-07-29T07:48:50;0.47;;;0.47;;
20627;SDS011;10473;42.734;24.258;2023-07-29T07:51:18;1.58;;;0.63;;
20627;SDS011;10473;42.734;24.258;2023-07-29T07:53:45;0.32;;;0.32;;
20627;SDS011;10473;42.734;24.258;2023-07-29T07:56:13;0.30;;;0.30;;
20627;SDS011;10473;42.734;24.258;2023-07-29T07:58:41;1.37;;;1.13;;
20627;SDS011;10473;42.734;24.258;2023-07-29T08:01:10;0.73;;;0.73;;
20627;SDS011;10473;42.734;24.258;2023-07-29T08:03:38;0.47;;;0.47;;
20627;SDS011;10473;42.734;24.258;2023-07-29T08:06:06;1.10;;;0.90;;
20627;SDS011;10473;42.734;24.258;2023-07-29T08:08:35;0.40;;;0.40;;
20627;SDS011;10473;42.734;24.258;2023-07-29T08:11:03;0.25;;;0.25;;
20627;SDS011;10473;42.734;24.258;2023-07-29T08:13:30;0.30;;;0.30;;
20627;SDS011;10473;42.734;24.258;2023-07-29T08:15:58;0.40;;;0.40;;
20627;SDS011;10473;42.734;24.258;2023-07-29T08:18:27;0.20;;;0.20;;
20627;SDS011;10473;42.734;24.258;2023-07-29T08:20:55;0.10;;;0.10;;
20627;SDS011;10473;42.734;24.258;2023-07-29T08:23:24;0.30;;;0.30;;
20627;SDS011;10473;42.734;24.258;2023-07-29T08:25:52;0.47;;;0.38;;
20627;SDS011;10473;42.734;24.258;2023-07-29T08:28:22;0.40;;;0.40;;
20627;SDS011;10473;42.734;24.258;2023-07-29T08:30:50;0.22;;;0.22;;
20627;SDS011;10473;42.734;24.258;2023-07-29T08:33:18;0.50;;;0.50;;
20627;SDS011;10473;42.734;24.258;2023-07-29T08:35:47;0.43;;;0.43;;
20627;SDS011;10473;42.734;24.258;2023-07-29T08:38:14;0.60;;;0.60;;
20627;SDS011;10473;42.734;24.258;2023-07-29T08:40:43;0.10;;;0.10;;
20627;SDS011;10473;42.734;24.258;2023-07-29T08:43:15;0.32;;;0.32;;
20627;SDS011;10473;42.734;24.258;2023-07-29T08:45:46;0.85;;;0.70;;
20627;SDS011;10473;42.734;24.258;2023-07-29T08:48:15;0.50;;;0.20;;
20627;SDS011;10473;42.734;24.258;2023-07-29T08:50:52;0.10;;;0.10;;
20627;SDS011;10473;42.734;24.258;2023-07-29T08:53:20;0.30;;;0.30;;
20627;SDS011;10473;42.734;24.258;2023-07-29T08:55:49;0.35;;;0.35;;
20627;SDS011;10473;42.734;24.258;2023-07-29T08:58:16;0.88;;;0.82;;
20627;SDS011;10473;42.734;24.258;2023-07-29T09:00:44;0.65;;;0.65;;
20627;SDS011;10473;42.734;24.258;2023-07-29T09:03:13;0.75;;;0.75;;
20627;SDS011;10473;42.734;24.258;2023-07-29T09:05:41;0.35;;;0.35;;
20627;SDS011;10473;42.734;24.258;2023-07-29T09:08:10;0.35;;;0.35;;
20627;SDS011;10473;42.734;24.258;2023-07-29T09:10:38;1.10;;;0.30;;
20627;SDS011;10473;42.734;24.258;2023-07-29T09:13:05;0.50;;;0.43;;
20627;SDS011;10473;42.734;24.258;2023-07-29T09:15:34;0.20;;;0.20;;
20627;SDS011;10473;42.734;24.258;2023-07-29T09:18:09;10.23;;;0.57;;
20627;SDS011;10473;42.734;24.258;2023-07-29T09:20:38;0.47;;;0.40;;
20627;SDS011;10473;42.734;24.258;2023-07-29T09:23:07;0.65;;;0.50;;
20627;SDS011;10473;42.734;24.258;2023-07-29T09:25:37;1.13;;;0.50;;
20627;SDS011;10473;42.734;24.258;2023-07-29T09:28:09;1.42;;;0.43;;
20627;SDS011;10473;42.734;24.258;2023-07-29T09:30:38;0.70;;;0.70;;
20627;SDS011;10473;42.734;24.258;2023-07-29T09:33:06;0.65;;;0.65;;
20627;SDS011;10473;42.734;24.258;2023-07-29T09:35:34;0.95;;;0.45;;
20627;SDS011;10473;42.734;24.258;2023-07-29T09:38:02;0.32;;;0.32;;
20627;SDS011;10473;42.734;24.258;2023-07-29T09:40:34;0.47;;;0.47;;
20627;SDS011;10473;42.734;24.258;2023-07-29T09:43:06;0.30;;;0.30;;
20627;SDS011;10473;42.734;24.258;2023-07-29T09:45:35;0.52;;;0.52;;
20627;SDS011;10473;42.734;24.258;2023-07-29T09:48:04;0.52;;;0.52;;
20627;SDS011;10473;42.734;24.258;2023-07-29T09:50:36;0.40;;;0.40;;
20627;SDS011;10473;42.734;24.258;2023-07-29T09:53:03;0.30;;;0.30;;
20627;SDS011;10473;42.734;24.258;2023-07-29T09:55:34;0.50;;;0.50;;
20627;SDS011;10473;42.734;24.258;2023-07-29T09:58:06;0.68;;;0.68;;
20627;SDS011;10473;42.734;24.258;2023-07-29T10:00:37;0.30;;;0.25;;
20627;SDS011;10473;42.734;24.258;2023-07-29T10:03:09;0.30;;;0.30;;
20627;SDS011;10473;42.734;24.258;2023-07-29T10:05:37;0.87;;;0.50;;
20627;SDS011;10473;42.734;24.258;2023-07-29T10:08:05;0.37;;;0.37;;
20627;SDS011;10473;42.734;24.258;2023-07-29T10:10:34;0.40;;;0.40;;
20627;SDS011;10473;42.734;24.258;2023-07-29T10:13:01;0.20;;;0.20;;
20627;SDS011;10473;42.734;24.258;2023-07-29T10:15:31;0.20;;;0.20;;
20627;SDS011;10473;42.734;24.258;2023-07-29T10:17:59;0.38;;;0.38;;
20627;SDS011;10473;42.734;24.258;2023-07-29T10:20:30;0.40;;;0.40;;
20627;SDS011;10473;42.734;24.258;2023-07-29T10:22:59;0.70;;;0.70;;
20627;SDS011;10473;42.734;24.258;2023-07-29T10:25:29;0.30;;;0.30;;
20627;SDS011;10473;42.734;24.258;2023-07-29T10:28:05;0.45;;;0.40;;
20627;SDS011;10473;42.734;24.258;2023-07-29T10:30:35;0.45;;;0.45;;
20627;SDS011;10473;42.734;24.258;2023-07-29T10:33:03;0.35;;;0.30;;
20627;SDS011;10473;42.734;24.258;2023-07-29T10:35:32;0.25;;;0.25;;
20627;SDS011;10473;42.734;24.258;2023-07-29T10:38:00;0.22;;;0.22;;
20627;SDS011;10473;42.734;24.258;2023-07-29T10:40:43;0.30;;;0.30;;
20627;SDS011;10473;42.734;24.258;2023-07-29T10:43:12;0.40;;;0.40;;
20627;SDS011;10473;42.734;24.258;2023-07-29T10:45:46;0.40;;;0.40;;
20627;SDS011;10473;42.734;24.258;2023-07-29T10:48:39;0.17;;;0.17;;
20627;SDS011;10473;42.734;24.258;2023-07-29T10:51:34;0.30;;;0.30;;
20627;SDS011;10473;42.734;24.258;2023-07-29T10:54:09;0.50;;;0.50;;
20627;SDS011;10473;42.734;24.258;2023-07-29T10:56:40;0.63;;;0.63;;
20627;SDS011;10473;42.734;24.258;2023-07-29T11:02:02;0.73;;;0.73;;
20627;SDS011;10473;42.734;24.258;2023-07-29T11:04:46;0.38;;;0.38;;
20627;SDS011;10473;42.734;24.258;2023-07-29T11:07:19;0.30;;;0.30;;
20627;SDS011;10473;42.734;24.258;2023-07-29T11:09:55;0.32;;;0.32;;
20627;SDS011;10473;42.734;24.258;2023-07-29T11:12:40;0.40;;;0.40;;
20627;SDS011;10473;42.734;24.258;2023-07-29T11:15:12;0.30;;;0.30;;
20627;SDS011;10473;42.734;24.258;2023-07-29T11:17:43;0.50;;;0.50;;
20627;SDS011;10473;42.734;24.258;2023-07-29T11:20:12;0.30;;;0.30;;
20627;SDS011;10473;42.734;24.258;2023-07-29T11:22:40;0.40;;;0.40;;
20627;SDS011;10473;42.734;24.258;2023-07-29T11:25:12;0.30;;;0.30;;
20627;SDS011;10473;42.734;24.258;2023-07-29T11:27:41;0.30;;;0.30;;
20627;SDS011;10473;42.734;24.258;2023-07-29T11:30:09;0.43;;;0.43;;
20627;SDS011;10473;42.734;24.258;2023-07-29T11:32:39;0.20;;;0.20;;
20627;SDS011;10473;42.734;24.258;2023-07-29T11:35:09;0.20;;;0.20;;
20627;SDS011;10473;42.734;24.258;2023-07-29T11:37:38;0.50;;;0.50;;
20627;SDS011;10473;42.734;24.258;2023-07-29T11:40:06;0.55;;;0.55;;
20627;SDS011;10473;42.734;24.258;2023-07-29T11:42:36;0.28;;;0.28;;
20627;SDS011;10473;42.734;24.258;2023-07-29T11:45:05;0.40;;;0.30;;
20627;SDS011;10473;42.734;24.258;2023-07-29T11:47:34;1.30;;;1.10;;
20627;SDS011;10473;42.734;24.258;2023-07-29T11:50:03;0.50;;;0.50;;
20627;SDS011;10473;42.734;24.258;2023-07-29T11:52:33;0.30;;;0.30;;
20627;SDS011;10473;42.734;24.258;2023-07-29T11:55:02;0.73;;;0.60;;
20627;SDS011;10473;42.734;24.258;2023-07-29T11:57:31;0.20;;;0.20;;
20627;SDS011;10473;42.734;24.258;2023-07-29T12:00:03;0.30;;;0.30;;
20627;SDS011;10473;42.734;24.258;2023-07-29T12:02:34;0.20;;;0.20;;
20627;SDS011;10473;42.734;24.258;2023-07-29T12:05:04;0.55;;;0.55;;
20627;SDS011;10473;42.734;24.258;2023-07-29T12:07:34;2.33;;;0.57;;
20627;SDS011;10473;42.734;24.258;2023-07-29T12:10:02;0.65;;;0.57;;
20627;SDS011;10473;42.734;24.258;2023-07-29T12:12:31;0.40;;;0.28;;
20627;SDS011;10473;42.734;24.258;2023-07-29T12:15:24;0.65;;;0.65;;
20627;SDS011;10473;42.734;24.258;2023-07-29T12:17:53;0.30;;;0.30;;
20627;SDS011;10473;42.734;24.258;2023-07-29T12:20:23;0.40;;;0.40;;
20627;SDS011;10473;42.734;24.258;2023-07-29T12:22:53;0.40;;;0.40;;
20627;SDS011;10473;42.734;24.258;2023-07-29T12:25:22;0.38;;;0.38;;
20627;SDS011;10473;42.734;24.258;2023-07-29T12:27:50;0.70;;;0.70;;
20627;SDS011;10473;42.734;24.258;2023-07-29T12:30:20;0.22;;;0.22;;
20627;SDS011;10473;42.734;24.258;2023-07-29T12:32:48;0.20;;;0.20;;
20627;SDS011;10473;42.734;24.258;2023-07-29T12:35:16;0.22;;;0.22;;
20627;SDS011;10473;42.734;24.258;2023-07-29T12:37:44;0.40;;;0.40;;
20627;SDS011;10473;42.734;24.258;2023-07-29T12:43:10;0.40;;;0.40;;
20627;SDS011;10473;42.734;24.258;2023-07-29T12:45:38;0.40;;;0.40;;
20627;SDS011;10473;42.734;24.258;2023-07-29T12:48:07;0.40;;;0.40;;
20627;SDS011;10473;42.734;24.258;2023-07-29T12:50:35;0.30;;;0.30;;
20627;SDS011;10473;42.734;24.258;2023-07-29T12:53:04;0.70;;;0.70;;
20627;SDS011;10473;42.734;24.258;2023-07-29T12:55:32;0.25;;;0.25;;
20627;SDS011;10473;42.734;24.258;2023-07-29T12:57:59;0.57;;;0.57;;
20627;SDS011;10473;42.734;24.258;2023-07-29T13:00:28;0.52;;;0.52;;
20627;SDS011;10473;42.734;24.258;2023-07-29T13:02:56;8.95;;;0.95;;
20627;SDS011;10473;42.734;24.258;2023-07-29T13:05:24;0.85;;;0.85;;
20627;SDS011;10473;42.734;24.258;2023-07-29T13:07:52;0.40;;;0.40;;
20627;SDS011;10473;42.734;24.258;2023-07-29T13:10:19;0.75;;;0.75;;
20627;SDS011;10473;42.734;24.258;2023-07-29T13:12:47;0.30;;;0.22;;
20627;SDS011;10473;42.734;24.258;2023-07-29T13:15:15;0.30;;;0.30;;
20627;SDS011;10473;42.734;24.258;2023-07-29T13:17:44;0.40;;;0.40;;
20627;SDS011;10473;42.734;24.258;2023-07-29T13:20:11;0.55;;;0.55;;
20627;SDS011;10473;42.734;24.258;2023-07-29T13:22:39;0.30;;;0.30;;
20627;SDS011;10473;42.734;24.258;2023-07-29T13:25:07;0.30;;;0.30;;
20627;SDS011;10473;42.734;24.258;2023-07-29T13:27:35;0.38;;;0.38;;
20627;SDS011;10473;42.734;24.258;2023-07-29T13:30:03;0.22;;;0.22;;
20627;SDS011;10473;42.734;24.258;2023-07-29T13:32:32;0.60;;;0.60;;
20627;SDS011;10473;42.734;24.258;2023-07-29T13:35:01;0.43;;;0.43;;
20627;SDS011;10473;42.734;24.258;2023-07-29T13:37:29;0.30;;;0.30;;
20627;SDS011;10473;42.734;24.258;2023-07-29T13:39:57;0.20;;;0.20;;
20627;SDS011;10473;42.734;24.258;2023-07-29T13:42:25;0.30;;;0.30;;
20627;SDS011;10473;42.734;24.258;2023-07-29T13:44:52;1.52;;;0.65;;
20627;SDS011;10473;42.734;24.258;2023-07-29T13:47:20;1.98;;;0.43;;
20627;SDS011;10473;42.734;24.258;2023-07-29T13:49:47;0.40;;;0.40;;
20627;SDS011;10473;42.734;24.258;2023-07-29T13:52:16;0.30;;;0.30;;
20627;SDS011;10473;42.734;24.258;2023-07-29T13:54:44;0.50;;;0.50;;
20627;SDS011;10473;42.734;24.258;2023-07-29T13:57:11;0.30;;;0.20;;
20627;SDS011;10473;42.734;24.258;2023-07-29T13:59:39;0.22;;;0.22;;
20627;SDS011;10473;42.734;24.258;2023-07-29T14:02:07;0.10;;;0.10;;
20627;SDS011;10473;42.734;24.258;2023-07-29T14:04:34;0.30;;;0.30;;
20627;SDS011;10473;42.734;24.258;2023-07-29T14:07:02;0.30;;;0.30;;
20627;SDS011;10473;42.734;24.258;2023-07-29T14:09:32;0.10;;;0.10;;
20627;SDS011;10473;42.734;24.258;2023-07-29T14:11:59;0.40;;;0.40;;
20627;SDS011;10473;42.734;24.258;2023-07-29T14:14:28;0.20;;;0.20;;
20627;SDS011;10473;42.734;24.258;2023-07-29T14:16:56;0.38;;;0.35;;
20627;SDS011;10473;42.734;24.258;2023-07-29T14:19:23;0.60;;;0.50;;
20627;SDS011;10473;42.734;24.258;2023-07-29T14:21:51;0.30;;;0.30;;
20627;SDS011;10473;42.734;24.258;2023-07-29T14:24:19;0.10;;;0.10;;
20627;SDS011;10473;42.734;24.258;2023-07-29T14:26:50;0.40;;;0.40;;
20627;SDS011;10473;42.734;24.258;2023-07-29T14:29:17;0.52;;;0.30;;
20627;SDS011;10473;42.734;24.258;2023-07-29T14:31:45;0.22;;;0.20;;
20627;SDS011;10473;42.734;24.258;2023-07-29T14:34:13;0.25;;;0.25;;
20627;SDS011;10473;42.734;24.258;2023-07-29T14:36:40;0.30;;;0.30;;
20627;SDS011;10473;42.734;24.258;2023-07-29T14:39:08;0.35;;;0.35;;
20627;SDS011;10473;42.734;24.258;2023-07-29T14:41:36;0.30;;;0.30;;
20627;SDS011;10473;42.734;24.258;2023-07-29T14:44:05;0.47;;;0.47;;
20627;SDS011;10473;42.734;24.258;2023-07-29T14:46:32;0.03;;;0.03;;
20627;SDS011;10473;42.734;24.258;2023-07-29T14:49:00;0.70;;;0.70;;
20627;SDS011;10473;42.734;24.258;2023-07-29T14:51:27;0.20;;;0.20;;